createdAt,value
2022-12-05T00:02:04.621Z,30.60
2022-12-05T00:04:33.133Z,31.40
2022-12-05T00:07:01.729Z,29.70
2022-12-05T00:09:30.043Z,31.10
2022-12-05T00:11:58.331Z,31.10
2022-12-05T00:14:26.585Z,28.30
2022-12-05T00:16:54.985Z,30.50
2022-12-05T00:19:23.215Z,30.80
2022-12-05T00:21:51.435Z,29.60
2022-12-05T00:24:20.854Z,32.30
2022-12-05T00:26:49.155Z,32.30
2022-12-05T00:29:17.690Z,29.30
2022-12-05T00:31:46.104Z,30.50
2022-12-05T00:34:14.454Z,32.90
2022-12-05T00:36:42.913Z,31.30
2022-12-05T00:39:15.666Z,28.50
2022-12-05T00:41:44.707Z,31.10
2022-12-05T00:44:13.864Z,31.10
2022-12-05T00:46:42.364Z,31.50
2022-12-05T00:49:12.870Z,31.90
2022-12-05T00:51:43.140Z,31.80
2022-12-05T00:54:15.221Z,31.00
2022-12-05T00:56:45.440Z,31.20
2022-12-05T00:59:19.014Z,29.40
2022-12-05T01:01:49.988Z,30.30
2022-12-05T01:04:24.813Z,30.00
2022-12-05T01:06:58.238Z,28.60
2022-12-05T01:09:27.248Z,31.90
2022-12-05T01:11:55.691Z,30.70
2022-12-05T01:14:26.295Z,32.50
2022-12-05T01:16:56.695Z,29.00
2022-12-05T01:19:31.632Z,30.50
2022-12-05T01:22:00.439Z,29.50
2022-12-05T01:24:30.212Z,32.10
2022-12-05T01:26:58.550Z,28.10
2022-12-05T01:29:27.339Z,30.10
2022-12-05T01:31:56.010Z,29.20
2022-12-05T01:34:24.448Z,27.80
2022-12-05T01:36:52.890Z,29.00
2022-12-05T01:39:21.331Z,29.60
2022-12-05T01:41:50.440Z,29.50
2022-12-05T01:44:18.640Z,27.40
2022-12-05T01:46:50.017Z,28.90
2022-12-05T01:49:21.483Z,28.40
2022-12-05T01:52:14.816Z,28.20
2022-12-05T01:54:46.767Z,27.40
2022-12-05T01:57:16.480Z,30.70
2022-12-05T01:59:50.298Z,32.30
2022-12-05T02:02:19.625Z,29.30
2022-12-05T02:05:02.673Z,30.50
2022-12-05T02:07:32.951Z,27.40
2022-12-05T02:10:01.234Z,28.10
2022-12-05T02:12:29.563Z,27.10
2022-12-05T02:15:12.004Z,24.90
2022-12-05T02:18:13.504Z,24.40
2022-12-05T02:21:10.689Z,24.20
2022-12-05T02:24:17.707Z,22.80
2022-12-05T02:26:57.526Z,25.90
2022-12-05T02:29:56.947Z,25.00
2022-12-05T02:33:04.825Z,25.40
2022-12-05T02:35:59.695Z,23.30
2022-12-05T02:38:53.049Z,23.90
2022-12-05T02:41:33.298Z,23.40
2022-12-05T02:44:18.879Z,23.90
2022-12-05T02:49:23.827Z,22.30
2022-12-05T02:51:59.289Z,22.50
2022-12-05T02:54:31.640Z,21.20
2022-12-05T02:57:01.300Z,22.40
2022-12-05T02:59:29.625Z,23.90
2022-12-05T03:01:57.908Z,21.30
2022-12-05T03:04:27.923Z,21.70
2022-12-05T03:07:03.742Z,23.60
2022-12-05T03:09:44.191Z,22.20
2022-12-05T03:12:21.490Z,22.00
2022-12-05T03:15:03.272Z,20.10
2022-12-05T03:18:06.839Z,21.90
2022-12-05T03:21:04.375Z,20.70
2022-12-05T03:23:40.669Z,21.50
2022-12-05T03:26:26.891Z,22.70
2022-12-05T03:29:22.603Z,19.60
2022-12-05T03:32:03.787Z,20.60
2022-12-05T03:35:09.952Z,21.20
2022-12-05T03:38:00.036Z,21.50
2022-12-05T03:41:02.481Z,21.20
2022-12-05T03:43:38.380Z,21.20
2022-12-05T03:46:23.035Z,24.20
2022-12-05T03:48:55.424Z,23.00
2022-12-05T03:51:31.948Z,24.00
2022-12-05T03:54:24.142Z,24.80
2022-12-05T03:57:18.412Z,25.50
2022-12-05T03:59:49.211Z,25.90
2022-12-05T04:02:33.920Z,30.70
2022-12-05T04:05:10.468Z,28.90
2022-12-05T04:07:40.966Z,29.80
2022-12-05T04:10:16.288Z,28.20
2022-12-05T04:12:46.768Z,31.20
2022-12-05T04:15:22.657Z,30.60
2022-12-05T04:17:58.848Z,29.20
2022-12-05T04:20:56.250Z,30.80
2022-12-05T04:23:26.213Z,29.60
2022-12-05T04:26:26.000Z,31.00
2022-12-05T04:29:12.296Z,30.20
2022-12-05T04:31:47.405Z,32.20
2022-12-05T04:36:56.949Z,27.50
2022-12-05T04:39:58.269Z,30.20
2022-12-05T04:42:31.383Z,27.80
2022-12-05T04:45:05.817Z,31.30
2022-12-05T04:47:42.708Z,30.00
2022-12-05T04:50:13.740Z,28.20
2022-12-05T04:52:47.087Z,28.50
2022-12-05T04:55:20.784Z,30.80
2022-12-05T04:58:01.856Z,30.90
2022-12-05T05:00:32.556Z,30.40
2022-12-05T05:03:10.513Z,29.20
2022-12-05T05:05:40.410Z,28.70
2022-12-05T05:08:18.543Z,29.40
2022-12-05T05:11:24.608Z,28.50
2022-12-05T05:13:54.462Z,26.30
2022-12-05T05:16:25.851Z,30.50
2022-12-05T05:18:54.348Z,27.10
2022-12-05T05:21:31.433Z,28.00
2022-12-05T05:24:01.043Z,28.10
2022-12-05T05:26:31.262Z,27.20
2022-12-05T05:28:59.581Z,28.70
2022-12-05T05:31:28.034Z,27.70
2022-12-05T05:33:57.286Z,28.10
2022-12-05T05:36:28.288Z,28.50
2022-12-05T05:38:59.920Z,26.70
2022-12-05T05:41:30.955Z,26.70
2022-12-05T05:44:00.745Z,25.10
2022-12-05T05:46:31.514Z,28.70
2022-12-05T05:49:00.065Z,29.80
2022-12-05T05:51:30.469Z,29.60
2022-12-05T05:53:59.575Z,30.90
2022-12-05T05:56:29.065Z,29.00
2022-12-05T05:59:01.084Z,30.90
2022-12-05T06:01:30.631Z,29.80
2022-12-05T06:03:59.454Z,31.90
2022-12-05T06:06:28.056Z,31.50
2022-12-05T06:08:57.103Z,34.80
2022-12-05T06:11:27.849Z,27.80
2022-12-05T06:13:58.253Z,29.50
2022-12-05T06:16:26.703Z,30.30
2022-12-05T06:18:55.065Z,30.40
2022-12-05T06:21:24.050Z,27.50
2022-12-05T06:23:53.671Z,30.50
2022-12-05T06:26:22.923Z,27.70
2022-12-05T06:28:51.145Z,28.90
2022-12-05T06:31:23.373Z,28.80
2022-12-05T06:33:51.707Z,31.70
2022-12-05T06:36:21.960Z,30.30
2022-12-05T06:38:50.156Z,28.10
2022-12-05T06:41:20.981Z,29.10
2022-12-05T06:43:49.352Z,31.50
2022-12-05T06:46:17.669Z,33.30
2022-12-05T06:48:46.072Z,31.00
2022-12-05T06:51:16.847Z,29.00
2022-12-05T06:53:45.760Z,29.50
2022-12-05T06:56:17.669Z,30.10
2022-12-05T06:58:49.055Z,29.50
2022-12-05T07:01:38.817Z,24.40
2022-12-05T07:04:24.499Z,28.70
2022-12-05T07:09:44.382Z,26.80
2022-12-05T07:12:15.021Z,32.50
2022-12-05T07:14:49.035Z,32.50
2022-12-05T07:17:20.127Z,31.90
2022-12-05T07:19:52.043Z,28.20
2022-12-05T07:22:23.228Z,27.30
2022-12-05T07:24:52.477Z,25.00
2022-12-05T07:27:26.817Z,25.60
2022-12-05T07:32:25.442Z,28.80
2022-12-05T07:34:55.643Z,31.00
2022-12-05T07:37:24.302Z,34.40
2022-12-05T07:39:53.249Z,85.40
2022-12-05T07:42:21.811Z,80.90
2022-12-05T07:44:50.206Z,79.00
2022-12-05T07:47:18.530Z,85.50
2022-12-05T07:49:46.843Z,45.80
2022-12-05T07:52:15.399Z,43.00
2022-12-05T07:54:43.681Z,42.00
2022-12-05T07:57:11.984Z,37.60
2022-12-05T07:59:40.303Z,33.70
2022-12-05T08:02:09.554Z,34.90
2022-12-05T08:04:38.038Z,34.40
2022-12-05T08:07:06.416Z,36.60
2022-12-05T08:09:34.666Z,41.10
2022-12-05T08:12:03.048Z,42.80
2022-12-05T08:14:32.211Z,43.30
2022-12-05T08:17:00.626Z,38.30
2022-12-05T08:19:28.932Z,31.80
2022-12-05T08:21:57.221Z,33.10
2022-12-05T08:24:25.656Z,32.70
2022-12-05T08:26:53.920Z,32.40
2022-12-05T08:29:22.809Z,34.10
2022-12-05T08:31:51.559Z,33.90
2022-12-05T08:34:20.856Z,31.00
2022-12-05T08:36:49.534Z,33.90
2022-12-05T08:39:19.909Z,32.30
2022-12-05T08:41:49.349Z,32.40
2022-12-05T08:44:18.868Z,24.20
2022-12-05T08:46:49.570Z,31.40
2022-12-05T08:49:18.983Z,30.40
2022-12-05T08:51:47.428Z,31.60
2022-12-05T08:54:15.727Z,31.80
2022-12-05T08:56:44.064Z,35.00
2022-12-05T08:59:12.461Z,33.90
2022-12-05T09:01:42.450Z,32.90
2022-12-05T09:04:12.397Z,32.80
2022-12-05T09:06:41.919Z,30.40
2022-12-05T09:09:11.892Z,30.90
2022-12-05T09:11:46.898Z,33.40
2022-12-05T09:16:45.796Z,33.80
2022-12-05T09:19:21.196Z,31.80
2022-12-05T09:21:49.459Z,33.30
2022-12-05T09:24:18.018Z,32.00
2022-12-05T09:26:46.864Z,31.60
2022-12-05T09:29:17.252Z,31.60
2022-12-05T09:31:50.404Z,30.40
2022-12-05T09:34:20.420Z,32.00
2022-12-05T09:36:55.830Z,32.00
2022-12-05T09:39:30.050Z,30.00
2022-12-05T09:42:20.285Z,30.10
2022-12-05T09:44:59.293Z,28.00
2022-12-05T09:47:31.558Z,32.20
2022-12-05T09:50:03.539Z,30.10
2022-12-05T09:52:33.300Z,31.40
2022-12-05T09:55:18.825Z,29.90
2022-12-05T09:58:27.804Z,31.70
2022-12-05T10:01:28.091Z,29.80
2022-12-05T10:04:02.707Z,29.80
2022-12-05T10:06:40.349Z,32.00
2022-12-05T10:09:31.722Z,32.30
2022-12-05T10:12:06.492Z,30.50
2022-12-05T10:14:50.006Z,30.90
2022-12-05T10:17:29.491Z,28.20
2022-12-05T10:20:03.163Z,27.40
2022-12-05T10:22:53.345Z,26.10
2022-12-05T10:25:24.188Z,25.20
2022-12-05T10:27:56.606Z,25.70
2022-12-05T10:30:29.806Z,23.80
2022-12-05T10:33:13.490Z,23.60
2022-12-05T10:35:43.399Z,23.90
2022-12-05T10:38:22.789Z,25.50
2022-12-05T10:40:57.872Z,24.80
2022-12-05T10:45:56.661Z,30.20
2022-12-05T10:48:25.947Z,26.20
2022-12-05T10:50:56.886Z,23.20
2022-12-05T10:53:39.725Z,25.40
2022-12-05T10:56:37.403Z,26.20
2022-12-05T10:59:08.430Z,25.50
2022-12-05T11:01:44.797Z,25.00
2022-12-05T11:04:45.952Z,25.70
2022-12-05T11:07:38.377Z,26.20
2022-12-05T11:10:27.145Z,23.90
2022-12-05T11:13:01.008Z,27.70
2022-12-05T11:15:31.539Z,24.90
2022-12-05T11:18:19.613Z,26.90
2022-12-05T11:20:47.810Z,22.40
2022-12-05T11:23:23.703Z,23.20
2022-12-05T11:25:52.768Z,23.60
2022-12-05T11:28:21.080Z,21.50
2022-12-05T11:31:14.662Z,21.50
2022-12-05T11:33:43.046Z,20.70
2022-12-05T11:36:25.376Z,20.20
2022-12-05T11:38:53.826Z,19.80
2022-12-05T11:41:44.925Z,19.60
2022-12-05T11:44:32.652Z,19.80
2022-12-05T11:47:15.217Z,20.30
2022-12-05T11:50:13.272Z,19.70
2022-12-05T11:53:20.928Z,20.20
2022-12-05T11:55:56.772Z,19.10
2022-12-05T11:58:58.615Z,19.40
2022-12-05T12:01:38.968Z,18.60
2022-12-05T12:04:38.190Z,22.70
2022-12-05T12:07:34.098Z,22.30
2022-12-05T12:10:24.061Z,21.40
2022-12-05T12:13:28.065Z,23.30
2022-12-05T12:16:28.635Z,19.50
2022-12-05T12:19:09.659Z,20.10
2022-12-05T12:22:13.601Z,22.20
2022-12-05T12:24:50.777Z,22.70
2022-12-05T12:27:59.913Z,21.40
2022-12-05T12:30:59.960Z,19.40
2022-12-05T12:33:51.972Z,19.10
2022-12-05T12:36:31.847Z,18.00
2022-12-05T12:39:13.139Z,18.30
2022-12-05T12:42:02.584Z,18.90
2022-12-05T12:44:59.516Z,16.90
2022-12-05T12:47:47.786Z,18.80
2022-12-05T12:50:41.968Z,18.80
2022-12-05T12:53:40.835Z,18.90
2022-12-05T12:56:27.959Z,18.10
2022-12-05T12:59:24.276Z,19.30
2022-12-05T13:02:00.011Z,19.10
2022-12-05T13:04:45.088Z,17.40
2022-12-05T13:07:36.565Z,18.80
2022-12-05T13:10:21.147Z,17.40
2022-12-05T13:12:51.927Z,18.40
2022-12-05T13:15:36.141Z,17.70
2022-12-05T13:18:05.827Z,18.30
2022-12-05T13:20:36.717Z,16.90
2022-12-05T13:23:09.400Z,16.50
2022-12-05T13:25:39.864Z,17.00
2022-12-05T13:28:26.640Z,15.30
2022-12-05T13:31:01.617Z,14.70
2022-12-05T13:36:25.972Z,14.40
2022-12-05T13:39:47.257Z,16.00
2022-12-05T13:42:30.513Z,25.40
2022-12-05T13:45:05.697Z,24.70
2022-12-05T13:47:59.332Z,20.50
2022-12-05T13:50:43.392Z,19.10
2022-12-05T13:53:33.368Z,20.30
2022-12-05T13:56:05.156Z,22.10
2022-12-05T13:58:38.109Z,23.20
2022-12-05T14:01:24.912Z,21.30
2022-12-05T14:03:57.272Z,18.50
2022-12-05T14:06:40.794Z,18.40
2022-12-05T14:09:18.085Z,23.90
2022-12-05T14:12:12.584Z,23.20
2022-12-05T14:14:56.149Z,19.30
2022-12-05T14:17:34.198Z,20.70
2022-12-05T14:20:11.656Z,21.70
2022-12-05T14:22:46.131Z,20.40
2022-12-05T14:25:39.751Z,20.80
2022-12-05T14:28:29.852Z,21.30
2022-12-05T14:31:23.913Z,20.00
2022-12-05T14:34:18.298Z,21.60
2022-12-05T14:37:21.239Z,25.70
2022-12-05T14:39:52.557Z,23.10
2022-12-05T14:42:42.573Z,25.30
2022-12-05T14:45:20.128Z,28.20
2022-12-05T14:47:58.759Z,43.70
2022-12-05T14:50:46.984Z,39.00
2022-12-05T14:53:15.403Z,39.80
2022-12-05T14:55:46.092Z,28.20
2022-12-05T14:58:22.388Z,36.40
2022-12-05T15:01:05.659Z,34.60
2022-12-05T15:03:38.996Z,32.20
2022-12-05T15:06:16.024Z,26.10
2022-12-05T15:08:50.777Z,31.30
2022-12-05T15:11:29.488Z,37.60
2022-12-05T15:14:22.623Z,29.30
2022-12-05T15:16:54.114Z,30.10
2022-12-05T15:19:30.237Z,30.70
2022-12-05T15:22:02.877Z,26.50
2022-12-05T15:24:38.798Z,26.60
2022-12-05T15:27:12.032Z,30.20
2022-12-05T15:29:41.228Z,33.00
2022-12-05T15:32:12.331Z,24.60
2022-12-05T15:34:47.245Z,25.70
2022-12-05T15:37:22.248Z,43.80
2022-12-05T15:39:50.547Z,36.50
2022-12-05T15:42:20.785Z,39.80
2022-12-05T15:44:52.105Z,42.30
2022-12-05T15:47:25.853Z,38.20
2022-12-05T15:49:54.135Z,35.80
2022-12-05T15:52:22.553Z,37.10
2022-12-05T15:54:53.791Z,37.70
2022-12-05T15:57:58.059Z,42.00
2022-12-05T16:00:28.521Z,40.70
2022-12-05T16:03:00.710Z,36.90
2022-12-05T16:05:40.046Z,33.20
2022-12-05T16:08:09.168Z,32.00
2022-12-05T16:10:37.688Z,30.90
2022-12-05T16:13:13.531Z,31.60
2022-12-05T16:15:52.350Z,31.70
2022-12-05T16:18:30.673Z,26.60
2022-12-05T16:20:59.471Z,40.30
2022-12-05T16:23:33.427Z,33.90
2022-12-05T16:26:21.319Z,24.40
2022-12-05T16:29:04.511Z,23.70
2022-12-05T16:31:34.248Z,34.00
2022-12-05T16:34:08.740Z,35.40
2022-12-05T16:36:47.090Z,27.20
2022-12-05T16:39:19.594Z,25.70
2022-12-05T16:41:50.025Z,23.50
2022-12-05T16:44:27.191Z,22.20
2022-12-05T16:46:56.804Z,21.80
2022-12-05T16:49:31.941Z,20.10
2022-12-05T16:52:22.286Z,22.00
2022-12-05T16:54:50.754Z,22.10
2022-12-05T16:57:19.557Z,20.20
2022-12-05T16:59:49.669Z,21.70
2022-12-05T17:02:19.928Z,22.00
2022-12-05T17:04:48.328Z,21.90
2022-12-05T17:07:16.596Z,24.60
2022-12-05T17:09:44.902Z,27.80
2022-12-05T17:12:24.054Z,33.10
2022-12-05T17:14:52.344Z,31.10
2022-12-05T17:17:21.355Z,30.90
2022-12-05T17:19:49.750Z,29.50
2022-12-05T17:22:18.116Z,29.80
2022-12-05T17:24:46.967Z,34.70
2022-12-05T17:27:15.317Z,29.90
2022-12-05T17:29:43.571Z,30.30
2022-12-05T17:32:11.872Z,29.70
2022-12-05T17:34:40.160Z,29.70
2022-12-05T17:37:08.400Z,41.00
2022-12-05T17:39:36.836Z,48.70
2022-12-05T17:42:05.646Z,44.50
2022-12-05T17:44:34.076Z,39.60
2022-12-05T17:47:07.729Z,28.30
2022-12-05T17:49:36.776Z,29.40
2022-12-05T17:52:22.214Z,42.00
2022-12-05T17:54:51.196Z,54.70
2022-12-05T17:57:19.732Z,77.40
2022-12-05T17:59:48.114Z,67.50
2022-12-05T18:02:19.104Z,62.20
2022-12-05T18:04:47.667Z,58.20
2022-12-05T18:07:15.915Z,52.40
2022-12-05T18:09:44.184Z,57.70
2022-12-05T18:12:12.476Z,53.50
2022-12-05T18:14:40.751Z,69.10
2022-12-05T18:17:09.003Z,79.90
2022-12-05T18:19:37.321Z,87.40
2022-12-05T18:22:05.664Z,84.20
2022-12-05T18:24:33.964Z,94.20
2022-12-05T18:27:02.255Z,85.80
2022-12-05T18:29:30.585Z,55.70
2022-12-05T18:31:58.974Z,57.40
2022-12-05T18:34:27.445Z,59.10
2022-12-05T18:36:56.313Z,63.30
2022-12-05T18:39:24.660Z,67.90
2022-12-05T18:41:54.652Z,74.50
2022-12-05T18:44:22.900Z,58.30
2022-12-05T18:46:51.201Z,65.10
2022-12-05T18:49:19.729Z,66.70
2022-12-05T18:51:48.195Z,67.80
2022-12-05T18:54:18.407Z,85.70
2022-12-05T18:56:50.287Z,92.80
2022-12-05T18:59:20.969Z,66.60
2022-12-05T19:01:50.068Z,60.40
2022-12-05T19:04:21.441Z,65.90
2022-12-05T19:06:54.939Z,64.70
2022-12-05T19:09:25.231Z,66.30
2022-12-05T19:11:57.122Z,63.80
2022-12-05T19:14:27.876Z,57.80
2022-12-05T19:17:00.199Z,53.80
2022-12-05T19:19:29.723Z,64.40
2022-12-05T19:21:59.482Z,70.10
2022-12-05T19:24:27.783Z,62.80
2022-12-05T19:26:56.076Z,63.50
2022-12-05T19:29:24.647Z,62.10
2022-12-05T19:31:52.941Z,67.40
2022-12-05T19:34:22.710Z,67.00
2022-12-05T19:36:51.285Z,69.30
2022-12-05T19:39:23.598Z,67.70
2022-12-05T19:41:52.691Z,58.80
2022-12-05T19:44:21.962Z,61.60
2022-12-05T19:46:50.863Z,71.20
2022-12-05T19:49:19.253Z,69.00
2022-12-05T19:51:48.825Z,63.90
2022-12-05T19:54:18.071Z,60.70
2022-12-05T19:56:46.511Z,65.70
2022-12-05T19:59:19.638Z,66.20
2022-12-05T20:01:48.057Z,72.10
2022-12-05T20:04:16.671Z,72.50
2022-12-05T20:06:47.976Z,68.00
2022-12-05T20:09:19.588Z,62.80
2022-12-05T20:11:55.997Z,58.40
2022-12-05T20:14:25.929Z,57.30
2022-12-05T20:16:54.556Z,60.00
2022-12-05T20:19:24.372Z,68.20
2022-12-05T20:21:52.840Z,63.60
2022-12-05T20:24:21.579Z,68.10
2022-12-05T20:26:49.948Z,65.80
2022-12-05T20:29:18.385Z,66.20
2022-12-05T20:31:46.592Z,66.30
2022-12-05T20:34:15.704Z,76.10
2022-12-05T20:36:44.092Z,75.30
2022-12-05T20:39:17.332Z,69.00
2022-12-05T20:41:46.498Z,68.00
2022-12-05T20:44:16.056Z,67.50
2022-12-05T20:46:44.581Z,72.60
2022-12-05T20:49:13.884Z,63.10
2022-12-05T20:51:44.242Z,66.20
2022-12-05T20:54:13.766Z,64.70
2022-12-05T20:56:42.623Z,62.00
2022-12-05T20:59:13.231Z,62.00
2022-12-05T21:01:42.147Z,57.90
2022-12-05T21:04:11.644Z,58.60
2022-12-05T21:06:43.195Z,69.30
2022-12-05T21:09:16.390Z,69.50
2022-12-05T21:11:45.307Z,72.50
2022-12-05T21:14:13.795Z,59.00
2022-12-05T21:16:42.125Z,60.10
2022-12-05T21:19:10.431Z,62.40
2022-12-05T21:21:39.160Z,63.00
2022-12-05T21:24:08.473Z,64.20
2022-12-05T21:26:38.257Z,61.10
2022-12-05T21:29:08.555Z,61.10
2022-12-05T21:31:40.250Z,61.40
2022-12-05T21:34:17.514Z,65.50
2022-12-05T21:36:46.683Z,64.00
2022-12-05T21:39:16.338Z,59.20
2022-12-05T21:41:44.587Z,56.70
2022-12-05T21:44:15.094Z,59.60
2022-12-05T21:46:43.489Z,58.10
2022-12-05T21:49:11.875Z,80.00
2022-12-05T21:51:40.633Z,88.20
2022-12-05T21:54:09.197Z,110.00
2022-12-05T21:56:39.221Z,104.10
2022-12-05T21:59:07.435Z,115.90
2022-12-05T22:01:35.811Z,103.10
2022-12-05T22:04:04.126Z,85.80
2022-12-05T22:06:34.086Z,69.20
2022-12-05T22:09:04.207Z,59.40
2022-12-05T22:11:32.596Z,61.00
2022-12-05T22:14:00.855Z,72.80
2022-12-05T22:16:33.272Z,91.20
2022-12-05T22:19:02.872Z,90.80
2022-12-05T22:21:34.299Z,87.80
2022-12-05T22:24:02.865Z,85.90
2022-12-05T22:26:31.304Z,84.90
2022-12-05T22:28:59.724Z,82.60
2022-12-05T22:31:27.972Z,81.90
2022-12-05T22:33:56.351Z,77.90
2022-12-05T22:36:25.517Z,78.60
2022-12-05T22:38:53.772Z,68.60
2022-12-05T22:41:25.854Z,61.60
2022-12-05T22:43:57.425Z,61.50
2022-12-05T22:46:28.089Z,59.40
2022-12-05T22:48:57.060Z,60.00
2022-12-05T22:51:27.844Z,54.90
2022-12-05T22:53:56.837Z,58.50
2022-12-05T22:56:27.785Z,64.20
2022-12-05T22:58:58.191Z,58.50
2022-12-05T23:01:32.910Z,59.70
2022-12-05T23:04:06.942Z,54.20
2022-12-05T23:06:52.742Z,57.60
2022-12-05T23:09:21.138Z,56.70
2022-12-05T23:11:50.629Z,57.20
2022-12-05T23:14:18.606Z,63.90
2022-12-05T23:16:46.588Z,63.80
2022-12-05T23:19:15.406Z,62.00
2022-12-05T23:21:43.326Z,55.90
2022-12-05T23:24:13.000Z,59.60
2022-12-05T23:26:44.602Z,61.20
2022-12-05T23:29:14.185Z,54.40
2022-12-05T23:31:43.377Z,49.80
2022-12-05T23:34:12.205Z,50.30
2022-12-05T23:36:40.244Z,49.30
2022-12-05T23:39:08.160Z,50.20
2022-12-05T23:41:36.187Z,46.00
2022-12-05T23:44:04.367Z,47.40
2022-12-05T23:46:32.292Z,47.60
2022-12-05T23:49:00.658Z,48.10
2022-12-05T23:51:30.443Z,48.10
2022-12-05T23:54:01.132Z,42.70
2022-12-05T23:56:32.446Z,46.40
2022-12-05T23:59:02.416Z,47.10
